createdAt,value
2022-08-21T00:00:29.308Z,21.00
2022-08-21T00:03:17.974Z,20.80
2022-08-21T00:06:06.868Z,20.80
2022-08-21T00:09:06.336Z,20.70
2022-08-21T00:11:55.260Z,20.70
2022-08-21T00:14:45.363Z,20.60
2022-08-21T00:17:35.075Z,20.60
2022-08-21T00:20:23.892Z,20.50
2022-08-21T00:23:12.683Z,20.40
2022-08-21T00:26:01.198Z,20.40
2022-08-21T00:28:49.933Z,20.30
2022-08-21T00:31:39.764Z,20.30
2022-08-21T00:34:28.330Z,20.30
2022-08-21T00:37:16.794Z,20.20
2022-08-21T00:40:06.286Z,20.20
2022-08-21T00:42:54.925Z,20.20
2022-08-21T00:45:43.511Z,20.30
2022-08-21T00:48:33.436Z,20.20
2022-08-21T00:51:26.587Z,20.20
2022-08-21T00:54:18.113Z,20.20
2022-08-21T00:57:12.301Z,20.20
2022-08-21T01:00:02.406Z,20.10
2022-08-21T01:02:50.881Z,20.10
2022-08-21T01:05:40.893Z,20.00
2022-08-21T01:08:30.035Z,20.00
2022-08-21T01:11:18.594Z,20.00
2022-08-21T01:14:07.250Z,19.90
2022-08-21T01:16:55.818Z,20.00
2022-08-21T01:19:44.367Z,19.90
2022-08-21T01:22:59.982Z,19.90
2022-08-21T01:25:48.673Z,19.80
2022-08-21T01:28:39.657Z,19.80
2022-08-21T01:31:28.715Z,19.90
2022-08-21T01:34:17.704Z,19.70
2022-08-21T01:37:06.474Z,19.70
2022-08-21T01:39:56.501Z,19.60
2022-08-21T01:42:45.353Z,19.60
2022-08-21T01:45:33.899Z,19.60
2022-08-21T01:48:22.539Z,19.60
2022-08-21T01:51:11.212Z,19.60
2022-08-21T01:53:59.842Z,19.60
2022-08-21T01:56:51.984Z,19.60
2022-08-21T01:59:40.614Z,19.60
2022-08-21T02:02:29.438Z,19.50
2022-08-21T02:05:18.129Z,19.50
2022-08-21T02:08:07.860Z,19.50
2022-08-21T02:10:56.595Z,19.50
2022-08-21T02:13:46.583Z,19.50
2022-08-21T02:16:35.564Z,19.60
2022-08-21T02:19:25.456Z,19.50
2022-08-21T02:22:14.083Z,19.50
2022-08-21T02:25:02.624Z,19.50
2022-08-21T02:27:54.086Z,19.50
2022-08-21T02:30:46.484Z,19.40
2022-08-21T02:33:35.328Z,19.40
2022-08-21T02:36:23.864Z,19.30
2022-08-21T02:39:12.460Z,19.30
2022-08-21T02:42:01.051Z,19.30
2022-08-21T02:44:50.011Z,19.30
2022-08-21T02:47:40.258Z,19.20
2022-08-21T02:50:30.528Z,19.10
2022-08-21T02:53:19.093Z,19.10
2022-08-21T02:56:09.852Z,19.10
2022-08-21T02:58:58.439Z,19.00
2022-08-21T03:01:47.091Z,19.10
2022-08-21T03:04:37.150Z,18.90
2022-08-21T03:07:25.714Z,18.90
2022-08-21T03:10:14.278Z,18.80
2022-08-21T03:13:03.365Z,18.80
2022-08-21T03:15:52.224Z,18.80
2022-08-21T03:18:41.702Z,18.70
2022-08-21T03:21:31.862Z,18.70
2022-08-21T03:24:21.342Z,18.70
2022-08-21T03:27:12.161Z,18.70
2022-08-21T03:30:01.139Z,18.60
2022-08-21T03:32:49.943Z,18.70
2022-08-21T03:35:38.661Z,18.80
2022-08-21T03:38:29.714Z,18.60
2022-08-21T03:41:18.357Z,18.60
2022-08-21T03:44:07.005Z,18.60
2022-08-21T03:46:55.589Z,18.60
2022-08-21T03:49:44.336Z,18.50
2022-08-21T03:52:32.904Z,18.50
2022-08-21T03:55:22.978Z,18.50
2022-08-21T03:58:16.923Z,18.50
2022-08-21T04:01:07.149Z,18.50
2022-08-21T04:03:55.729Z,18.50
2022-08-21T04:06:44.569Z,18.50
2022-08-21T04:09:33.252Z,18.50
2022-08-21T04:12:23.770Z,18.50
2022-08-21T04:15:13.578Z,18.40
2022-08-21T04:18:02.104Z,18.40
2022-08-21T04:20:52.082Z,18.40
2022-08-21T04:23:40.735Z,18.40
2022-08-21T04:26:29.314Z,18.30
2022-08-21T04:29:20.782Z,18.30
2022-08-21T04:32:09.410Z,18.30
2022-08-21T04:35:02.033Z,18.30
2022-08-21T04:37:50.870Z,18.30
2022-08-21T04:40:39.468Z,18.30
2022-08-21T04:43:29.339Z,18.30
2022-08-21T04:46:20.018Z,18.30
2022-08-21T04:49:08.490Z,18.30
2022-08-21T04:51:57.136Z,18.40
2022-08-21T04:54:47.037Z,18.30
2022-08-21T04:57:48.369Z,18.30
2022-08-21T05:00:38.150Z,18.30
2022-08-21T05:03:28.156Z,18.30
2022-08-21T05:06:16.858Z,18.40
2022-08-21T05:09:05.698Z,18.30
2022-08-21T05:11:54.293Z,18.30
2022-08-21T05:14:43.254Z,18.20
2022-08-21T05:17:32.007Z,18.20
2022-08-21T05:20:22.144Z,18.20
2022-08-21T05:23:11.326Z,18.30
2022-08-21T05:25:59.861Z,18.30
2022-08-21T05:28:48.513Z,18.40
2022-08-21T05:31:37.083Z,18.40
2022-08-21T05:34:26.202Z,18.50
2022-08-21T05:37:16.233Z,18.60
2022-08-21T05:40:21.364Z,18.70
2022-08-21T05:43:11.556Z,18.80
2022-08-21T05:46:00.661Z,19.10
2022-08-21T05:48:49.446Z,19.40
2022-08-21T05:51:38.083Z,19.70
2022-08-21T05:54:28.203Z,20.10
2022-08-21T05:57:16.743Z,20.60
2022-08-21T06:00:07.026Z,21.00
2022-08-21T06:03:01.614Z,21.40
2022-08-21T06:05:50.214Z,21.90
2022-08-21T06:08:38.937Z,22.30
2022-08-21T06:11:29.280Z,22.70
2022-08-21T06:14:18.039Z,23.10
2022-08-21T06:17:06.903Z,23.50
2022-08-21T06:19:55.538Z,23.90
2022-08-21T06:22:44.115Z,24.30
2022-08-21T06:25:32.735Z,24.70
2022-08-21T06:28:22.784Z,25.00
2022-08-21T06:31:16.319Z,25.30
2022-08-21T06:34:04.898Z,25.60
2022-08-21T06:36:53.483Z,25.70
2022-08-21T06:39:45.539Z,25.80
2022-08-21T06:42:34.208Z,25.90
2022-08-21T06:45:24.598Z,26.00
2022-08-21T06:48:18.431Z,26.00
2022-08-21T06:51:07.773Z,26.00
2022-08-21T06:53:56.590Z,26.00
2022-08-21T06:56:48.078Z,26.00
2022-08-21T06:59:36.699Z,26.00
2022-08-21T07:02:26.986Z,26.10
2022-08-21T07:05:18.448Z,26.20
2022-08-21T07:08:07.292Z,26.20
2022-08-21T07:10:56.147Z,26.30
2022-08-21T07:13:44.959Z,26.30
2022-08-21T07:16:33.750Z,26.40
2022-08-21T07:19:24.055Z,26.40
2022-08-21T07:22:12.688Z,26.50
2022-08-21T07:25:01.312Z,26.70
2022-08-21T07:27:49.870Z,26.80
2022-08-21T07:30:38.375Z,27.00
2022-08-21T07:33:27.715Z,27.30
2022-08-21T07:36:18.387Z,27.50
2022-08-21T07:39:06.996Z,27.70
2022-08-21T07:41:55.544Z,27.90
2022-08-21T07:44:44.234Z,28.10
2022-08-21T07:47:42.452Z,28.20
2022-08-21T07:50:31.711Z,28.40
2022-08-21T07:53:21.797Z,28.60
2022-08-21T07:56:12.023Z,28.70
2022-08-21T07:59:00.676Z,28.90
2022-08-21T08:01:49.257Z,29.00
2022-08-21T08:04:38.000Z,29.10
2022-08-21T08:07:39.337Z,29.20
2022-08-21T08:10:29.476Z,29.30
2022-08-21T08:13:18.140Z,29.30
2022-08-21T08:16:07.830Z,29.40
2022-08-21T08:18:56.804Z,29.50
2022-08-21T08:21:45.451Z,29.50
2022-08-21T08:24:34.057Z,29.70
2022-08-21T08:27:23.956Z,29.70
2022-08-21T08:30:14.628Z,29.70
2022-08-21T08:33:03.273Z,29.60
2022-08-21T08:35:53.157Z,29.60
2022-08-21T08:38:41.955Z,29.60
2022-08-21T08:41:33.372Z,29.50
2022-08-21T08:44:23.741Z,29.50
2022-08-21T08:47:13.514Z,29.50
2022-08-21T08:50:05.633Z,29.50
2022-08-21T08:52:58.698Z,29.60
2022-08-21T08:55:47.683Z,29.70
2022-08-21T08:58:40.108Z,29.80
2022-08-21T09:01:30.244Z,29.80
2022-08-21T09:04:22.436Z,29.80
2022-08-21T09:07:17.821Z,29.90
2022-08-21T09:10:19.384Z,29.90
2022-08-21T09:13:14.933Z,29.90
2022-08-21T09:16:07.785Z,29.90
2022-08-21T09:19:05.426Z,30.00
2022-08-21T09:22:01.186Z,30.00
2022-08-21T09:24:58.079Z,30.10
2022-08-21T09:27:46.894Z,30.20
2022-08-21T09:30:35.902Z,30.20
2022-08-21T09:33:24.454Z,30.30
2022-08-21T09:36:14.551Z,30.30
2022-08-21T09:39:03.121Z,30.40
2022-08-21T09:41:57.850Z,30.60
2022-08-21T09:44:47.297Z,30.60
2022-08-21T09:47:36.418Z,30.60
2022-08-21T09:50:27.779Z,30.60
2022-08-21T09:53:22.540Z,30.70
2022-08-21T09:56:38.823Z,30.80
2022-08-21T09:59:36.377Z,31.00
2022-08-21T10:02:29.121Z,31.20
2022-08-21T10:05:21.037Z,31.40
2022-08-21T10:08:20.979Z,31.50
2022-08-21T10:11:11.786Z,31.60
2022-08-21T10:14:06.011Z,31.80
2022-08-21T10:17:01.380Z,32.00
2022-08-21T10:19:55.146Z,32.10
2022-08-21T10:22:47.558Z,32.30
2022-08-21T10:25:56.369Z,32.30
2022-08-21T10:28:57.499Z,32.30
2022-08-21T10:31:56.540Z,32.30
2022-08-21T10:34:50.029Z,32.30
2022-08-21T10:37:49.365Z,32.40
2022-08-21T10:40:42.366Z,32.40
2022-08-21T10:43:36.098Z,32.30
2022-08-21T10:46:38.814Z,32.20
2022-08-21T10:49:35.264Z,32.20
2022-08-21T10:52:48.750Z,32.10
2022-08-21T10:55:43.277Z,32.00
2022-08-21T10:58:33.884Z,31.80
2022-08-21T11:01:28.617Z,31.70
2022-08-21T11:04:22.050Z,31.60
2022-08-21T11:07:17.553Z,31.50
2022-08-21T11:10:23.184Z,31.60
2022-08-21T11:13:20.093Z,31.60
2022-08-21T11:16:18.365Z,31.70
2022-08-21T11:19:11.477Z,31.80
2022-08-21T11:22:04.414Z,32.00
2022-08-21T11:24:56.864Z,32.10
2022-08-21T11:27:48.916Z,32.10
2022-08-21T11:30:46.636Z,32.20
2022-08-21T11:33:48.090Z,32.40
2022-08-21T11:36:45.222Z,32.50
2022-08-21T11:39:40.457Z,32.70
2022-08-21T11:42:34.745Z,32.90
2022-08-21T11:45:29.216Z,33.10
2022-08-21T11:48:34.989Z,33.20
2022-08-21T11:51:26.080Z,33.30
2022-08-21T11:54:22.763Z,33.40
2022-08-21T11:57:17.893Z,33.30
2022-08-21T12:00:10.058Z,33.20
2022-08-21T12:03:10.558Z,33.10
2022-08-21T12:06:02.132Z,32.90
2022-08-21T12:09:00.695Z,32.80
2022-08-21T12:11:50.117Z,32.70
2022-08-21T12:14:44.664Z,32.60
2022-08-21T12:17:38.753Z,32.60
2022-08-21T12:20:50.682Z,32.50
2022-08-21T12:23:50.542Z,32.40
2022-08-21T12:26:53.303Z,32.50
2022-08-21T12:29:47.468Z,32.50
2022-08-21T12:32:46.333Z,32.60
2022-08-21T12:35:39.779Z,32.70
2022-08-21T12:38:30.518Z,32.60
2022-08-21T12:41:24.137Z,32.40
2022-08-21T12:44:16.196Z,32.30
2022-08-21T12:47:07.175Z,32.30
2022-08-21T12:50:00.316Z,32.10
2022-08-21T12:52:56.492Z,32.10
2022-08-21T12:55:45.196Z,32.10
2022-08-21T12:58:35.125Z,32.00
2022-08-21T13:01:26.275Z,31.90
2022-08-21T13:04:19.084Z,31.90
2022-08-21T13:07:11.907Z,31.80
2022-08-21T13:10:03.480Z,31.80
2022-08-21T13:12:52.254Z,31.80
2022-08-21T13:15:47.593Z,31.90
2022-08-21T13:18:38.145Z,31.90
2022-08-21T13:21:31.749Z,31.90
2022-08-21T13:24:41.822Z,31.90
2022-08-21T13:27:32.546Z,32.00
2022-08-21T13:30:23.169Z,32.10
2022-08-21T13:33:13.640Z,32.20
2022-08-21T13:36:06.568Z,32.30
2022-08-21T13:38:55.853Z,32.40
2022-08-21T13:41:46.211Z,32.70
2022-08-21T13:44:37.289Z,32.80
2022-08-21T13:47:25.853Z,32.80
2022-08-21T13:50:16.669Z,32.80
2022-08-21T13:53:07.865Z,32.80
2022-08-21T13:56:00.558Z,32.70
2022-08-21T13:58:49.751Z,32.70
2022-08-21T14:01:41.127Z,32.70
2022-08-21T14:04:35.864Z,32.80
2022-08-21T14:07:28.285Z,32.80
2022-08-21T14:10:19.861Z,32.90
2022-08-21T14:13:09.095Z,33.00
2022-08-21T14:15:59.261Z,33.10
2022-08-21T14:18:51.370Z,33.10
2022-08-21T14:21:41.870Z,33.10
2022-08-21T14:24:32.375Z,33.10
2022-08-21T14:27:25.412Z,33.10
2022-08-21T14:30:19.368Z,33.10
2022-08-21T14:33:11.507Z,33.10
2022-08-21T14:36:00.281Z,33.00
2022-08-21T14:38:48.971Z,33.00
2022-08-21T14:41:39.345Z,33.00
2022-08-21T14:44:27.970Z,33.00
2022-08-21T14:47:16.529Z,33.00
2022-08-21T14:50:05.449Z,32.90
2022-08-21T14:52:54.493Z,32.80
2022-08-21T14:58:48.019Z,32.70
2022-08-21T15:01:46.083Z,32.60
2022-08-21T15:04:34.920Z,32.60
2022-08-21T15:07:23.514Z,32.60
2022-08-21T15:10:12.285Z,32.60
2022-08-21T15:13:01.182Z,32.60
2022-08-21T15:15:53.630Z,32.50
2022-08-21T15:18:42.843Z,32.60
2022-08-21T15:21:31.412Z,32.60
2022-08-21T15:24:20.018Z,32.70
2022-08-21T15:27:09.413Z,32.70
2022-08-21T15:29:58.295Z,32.60
2022-08-21T15:32:48.595Z,32.50
2022-08-21T15:35:37.476Z,32.50
2022-08-21T15:38:30.273Z,32.60
2022-08-21T15:41:19.096Z,32.60
2022-08-21T15:44:11.441Z,32.70
2022-08-21T15:47:00.705Z,32.70
2022-08-21T15:49:51.044Z,32.70
2022-08-21T15:52:40.191Z,32.70
2022-08-21T15:55:28.940Z,32.70
2022-08-21T15:58:18.032Z,32.60
2022-08-21T16:01:06.845Z,32.50
2022-08-21T16:03:55.440Z,32.50
2022-08-21T16:06:54.072Z,32.50
2022-08-21T16:09:45.358Z,32.40
2022-08-21T16:12:35.859Z,32.40
2022-08-21T16:15:24.522Z,32.30
2022-08-21T16:18:12.993Z,32.20
2022-08-21T16:21:01.515Z,32.10
2022-08-21T16:23:51.515Z,32.00
2022-08-21T16:26:40.012Z,32.00
2022-08-21T16:29:28.876Z,31.90
2022-08-21T16:32:18.368Z,31.90
2022-08-21T16:35:07.331Z,31.90
2022-08-21T16:37:55.993Z,31.80
2022-08-21T16:40:46.123Z,31.80
2022-08-21T16:43:34.651Z,31.70
2022-08-21T16:46:23.136Z,31.70
2022-08-21T16:49:11.727Z,31.70
2022-08-21T16:52:00.462Z,31.70
2022-08-21T16:54:48.902Z,31.70
2022-08-21T16:57:38.821Z,31.70
2022-08-21T17:00:27.297Z,31.60
2022-08-21T17:03:18.258Z,31.70
2022-08-21T17:06:07.302Z,31.70
2022-08-21T17:08:55.769Z,31.60
2022-08-21T17:11:47.614Z,31.60
2022-08-21T17:14:37.862Z,31.50
2022-08-21T17:17:26.396Z,31.40
2022-08-21T17:20:15.702Z,31.30
2022-08-21T17:23:04.418Z,31.20
2022-08-21T17:25:54.530Z,31.20
2022-08-21T17:28:43.155Z,31.10
2022-08-21T17:31:33.503Z,30.90
2022-08-21T17:34:21.988Z,30.80
2022-08-21T17:37:10.402Z,30.60
2022-08-21T17:39:58.872Z,30.40
2022-08-21T17:42:48.270Z,30.20
2022-08-21T17:45:37.165Z,30.00
2022-08-21T17:48:30.295Z,29.80
2022-08-21T17:51:19.081Z,29.50
2022-08-21T17:54:07.757Z,29.30
2022-08-21T17:56:56.182Z,29.10
2022-08-21T17:59:45.141Z,28.90
2022-08-21T18:02:34.003Z,28.70
2022-08-21T18:05:25.221Z,28.50
2022-08-21T18:08:14.558Z,28.30
2022-08-21T18:11:03.422Z,28.20
2022-08-21T18:13:52.032Z,27.90
2022-08-21T18:16:40.508Z,27.70
2022-08-21T18:19:29.085Z,27.60
2022-08-21T18:22:19.292Z,27.50
2022-08-21T18:25:08.928Z,27.20
2022-08-21T18:27:57.619Z,27.10
2022-08-21T18:30:46.723Z,26.90
2022-08-21T18:33:35.864Z,26.70
2022-08-21T18:36:24.721Z,26.60
2022-08-21T18:39:35.509Z,26.40
2022-08-21T18:42:28.383Z,26.30
2022-08-21T18:45:19.646Z,26.10
2022-08-21T18:48:09.393Z,25.90
2022-08-21T18:50:57.889Z,25.80
2022-08-21T18:53:48.453Z,25.70
2022-08-21T18:56:43.905Z,25.60
2022-08-21T18:59:32.679Z,25.50
2022-08-21T19:02:21.772Z,25.40
2022-08-21T19:05:13.533Z,25.40
2022-08-21T19:08:02.079Z,25.20
2022-08-21T19:10:52.073Z,25.10
2022-08-21T19:13:42.135Z,25.10
2022-08-21T19:16:30.566Z,25.00
2022-08-21T19:19:19.571Z,24.90
2022-08-21T19:22:10.834Z,24.80
2022-08-21T19:24:59.906Z,24.90
2022-08-21T19:27:48.734Z,24.70
2022-08-21T19:30:40.630Z,24.60
2022-08-21T19:33:33.639Z,24.60
2022-08-21T19:36:22.341Z,24.50
2022-08-21T19:39:11.062Z,24.50
2022-08-21T19:42:00.432Z,24.50
2022-08-21T19:44:54.195Z,24.50
2022-08-21T19:47:48.749Z,24.60
2022-08-21T19:50:38.043Z,24.50
2022-08-21T19:53:26.767Z,24.50
2022-08-21T19:56:20.474Z,24.50
2022-08-21T19:59:10.773Z,24.50
2022-08-21T20:01:59.504Z,24.40
2022-08-21T20:04:53.478Z,24.50
2022-08-21T20:07:43.404Z,24.50
2022-08-21T20:10:32.338Z,24.50
2022-08-21T20:13:22.377Z,24.50
2022-08-21T20:16:13.419Z,24.60
2022-08-21T20:19:03.674Z,24.60
2022-08-21T20:21:55.104Z,24.70
2022-08-21T20:24:46.595Z,24.80
2022-08-21T20:27:36.386Z,24.80
2022-08-21T20:30:29.312Z,24.80
2022-08-21T20:33:18.256Z,24.90
2022-08-21T20:36:07.361Z,25.10
2022-08-21T20:38:58.956Z,24.90
2022-08-21T20:41:47.779Z,24.90
2022-08-21T20:44:36.473Z,24.90
2022-08-21T20:47:25.420Z,24.90
2022-08-21T20:50:20.699Z,24.90
2022-08-21T20:53:13.446Z,24.80
2022-08-21T20:56:04.325Z,24.80
2022-08-21T20:58:56.197Z,24.80
2022-08-21T21:01:44.678Z,24.70
2022-08-21T21:04:37.804Z,24.70
2022-08-21T21:07:30.842Z,24.70
2022-08-21T21:10:26.657Z,24.70
2022-08-21T21:13:22.598Z,24.70
2022-08-21T21:16:13.788Z,24.70
2022-08-21T21:19:05.133Z,24.70
2022-08-21T21:21:58.234Z,24.60
2022-08-21T21:24:54.269Z,24.60
2022-08-21T21:27:48.958Z,24.50
2022-08-21T21:30:46.418Z,24.50
2022-08-21T21:33:35.326Z,24.50
2022-08-21T21:36:30.593Z,24.50
2022-08-21T21:39:25.044Z,24.50
2022-08-21T21:45:32.044Z,24.50
2022-08-21T21:48:27.661Z,24.50
2022-08-21T21:51:20.814Z,24.40
2022-08-21T21:54:18.760Z,24.40
2022-08-21T21:57:14.995Z,24.40
2022-08-21T22:00:10.134Z,24.40
2022-08-21T22:03:09.858Z,24.40
2022-08-21T22:06:07.947Z,24.40
2022-08-21T22:09:01.064Z,24.30
2022-08-21T22:12:02.398Z,24.40
2022-08-21T22:14:51.570Z,24.30
2022-08-21T22:17:45.576Z,24.30
2022-08-21T22:20:38.332Z,24.30
2022-08-21T22:23:34.297Z,24.30
2022-08-21T22:26:28.687Z,24.20
2022-08-21T22:29:20.369Z,24.20
2022-08-21T22:32:11.904Z,24.20
2022-08-21T22:41:33.924Z,24.10
2022-08-21T22:44:24.525Z,24.10
2022-08-21T22:47:21.053Z,24.00
2022-08-21T22:50:20.850Z,24.00
2022-08-21T22:53:09.972Z,24.00
2022-08-21T22:56:00.345Z,24.00
2022-08-21T22:58:57.323Z,23.90
2022-08-21T23:01:45.925Z,23.80
2022-08-21T23:04:48.293Z,23.80
2022-08-21T23:07:43.089Z,23.70
2022-08-21T23:10:35.107Z,23.60
2022-08-21T23:13:23.638Z,23.50
2022-08-21T23:16:31.597Z,23.50
2022-08-21T23:19:39.195Z,23.50
2022-08-21T23:22:37.484Z,23.30
2022-08-21T23:25:57.851Z,23.20
2022-08-21T23:28:59.033Z,23.10
2022-08-21T23:31:54.838Z,23.10
2022-08-21T23:34:45.823Z,23.10
2022-08-21T23:37:51.596Z,22.80
2022-08-21T23:40:51.381Z,22.70
2022-08-21T23:43:47.434Z,22.60
2022-08-21T23:46:54.030Z,22.60
2022-08-21T23:49:53.785Z,22.50
2022-08-21T23:52:52.728Z,22.50
2022-08-21T23:55:59.879Z,22.50
2022-08-21T23:58:54.229Z,22.50
